Time;durP1;ratioP1;P1;durP2;ratioP2;P2;SDS_P1;SDS_P2;PMS_P1;PMS_P2;Temp;Humidity;BMP_temperature;BMP_pressure;BME280_temperature;BME280_humidity;BME280_pressure;Samples;Min_cycle;Max_cycle;Signal;HPM_P1;HPM_P2
2022/10/07 00:02:13;;;;;;;1.08;0.80;;;;;;;;;;5089336;28;20526;-41
2022/10/07 00:04:44;;;;;;;1.35;0.98;;;;;;;;;;5088854;28;20379;-40
2022/10/07 00:07:10;;;;;;;0.60;0.57;;;;;;;;;;5089152;28;20077;-41
2022/10/07 00:09:37;;;;;;;0.68;0.60;;;;;;;;;;5080987;28;20025;-41
2022/10/07 00:12:03;;;;;;;1.38;0.93;;;;;;;;;;5068958;28;20036;-41
2022/10/07 00:14:29;;;;;;;1.38;0.77;;;;;;;;;;5068815;28;20028;-40
2022/10/07 00:16:55;;;;;;;1.63;0.75;;;;;;;;;;5068890;28;20726;-41
2022/10/07 00:19:21;;;;;;;1.17;0.88;;;;;;;;;;5068577;28;20510;-41
2022/10/07 00:21:47;;;;;;;1.85;0.73;;;;;;;;;;5068368;28;20522;-41
2022/10/07 00:24:14;;;;;;;0.77;0.60;;;;;;;;;;5075249;28;20016;-41
2022/10/07 00:26:41;;;;;;;1.00;0.70;;;;;;;;;;5088611;28;20024;-41
2022/10/07 00:29:07;;;;;;;0.80;0.50;;;;;;;;;;5088346;28;20115;-41
2022/10/07 00:31:35;;;;;;;0.93;0.77;;;;;;;;;;5088791;28;20027;-42
2022/10/07 00:34:02;;;;;;;0.60;0.60;;;;;;;;;;5088523;28;20027;-41
2022/10/07 00:36:30;;;;;;;0.77;0.55;;;;;;;;;;5088587;28;20043;-41
2022/10/07 00:38:58;;;;;;;0.65;0.60;;;;;;;;;;5087844;28;20026;-41
2022/10/07 00:41:28;;;;;;;1.33;0.70;;;;;;;;;;5089280;28;20666;-41
2022/10/07 00:43:55;;;;;;;0.65;0.50;;;;;;;;;;5088663;28;20705;-41
2022/10/07 00:46:24;;;;;;;0.70;0.70;;;;;;;;;;5088567;28;20097;-41
2022/10/07 00:48:51;;;;;;;1.10;0.82;;;;;;;;;;5087037;28;20077;-41
2022/10/07 00:51:17;;;;;;;0.80;0.60;;;;;;;;;;5088298;28;20032;-41
2022/10/07 00:53:47;;;;;;;1.75;0.77;;;;;;;;;;5087937;28;20076;-41
2022/10/07 00:56:13;;;;;;;0.52;0.52;;;;;;;;;;5088044;28;20028;-40
2022/10/07 00:58:40;;;;;;;0.90;0.57;;;;;;;;;;5087634;28;20027;-41
2022/10/07 01:01:07;;;;;;;0.82;0.60;;;;;;;;;;5087815;28;20478;-41
2022/10/07 01:03:34;;;;;;;1.10;0.70;;;;;;;;;;5087123;28;20463;-41
2022/10/07 01:06:00;;;;;;;0.65;0.55;;;;;;;;;;5087956;28;20029;-41
2022/10/07 01:08:27;;;;;;;1.42;0.80;;;;;;;;;;5086284;28;20056;-41
2022/10/07 01:10:53;;;;;;;0.95;0.60;;;;;;;;;;5088389;28;20067;-42
2022/10/07 01:13:41;;;;;;;1.67;0.60;;;;;;;;;;5087835;28;20028;-41
2022/10/07 01:16:16;;;;;;;0.65;0.60;;;;;;;;;;5071573;28;20074;-41
2022/10/07 01:18:48;;;;;;;1.00;0.77;;;;;;;;;;5067033;28;20025;-41
2022/10/07 01:21:23;;;;;;;0.90;0.60;;;;;;;;;;5067455;28;20048;-41
2022/10/07 01:23:57;;;;;;;1.27;0.65;;;;;;;;;;5067174;28;20021;-40
2022/10/07 01:26:39;;;;;;;1.27;0.75;;;;;;;;;;5082991;28;20073;-41
2022/10/07 01:29:09;;;;;;;0.98;0.80;;;;;;;;;;5087361;28;20040;-40
2022/10/07 01:31:36;;;;;;;1.42;0.90;;;;;;;;;;5087138;28;20036;-41
2022/10/07 01:34:03;;;;;;;0.88;0.68;;;;;;;;;;5087216;28;20078;-41
2022/10/07 01:36:30;;;;;;;0.95;0.57;;;;;;;;;;5069738;28;20089;-41
2022/10/07 01:39:01;;;;;;;1.27;0.70;;;;;;;;;;5067414;28;20030;-40
2022/10/07 01:41:27;;;;;;;1.15;0.65;;;;;;;;;;5065109;28;20396;-41
2022/10/07 01:43:54;;;;;;;1.00;0.70;;;;;;;;;;5067269;28;20048;-42
2022/10/07 01:46:22;;;;;;;1.23;0.85;;;;;;;;;;5067014;28;20099;-40
2022/10/07 01:48:50;;;;;;;1.00;0.60;;;;;;;;;;5066568;28;20059;-41
2022/10/07 01:51:18;;;;;;;1.05;0.70;;;;;;;;;;5085441;28;20036;-41
2022/10/07 01:54:00;;;;;;;1.08;0.80;;;;;;;;;;5086931;28;20020;-41
2022/10/07 01:56:35;;;;;;;2.15;0.80;;;;;;;;;;5087216;28;20530;-40
2022/10/07 01:59:25;;;;;;;1.05;0.70;;;;;;;;;;5086853;28;20727;-41
2022/10/07 02:02:17;;;;;;;1.42;0.85;;;;;;;;;;5056046;28;20036;-41
2022/10/07 02:04:43;;;;;;;0.60;0.60;;;;;;;;;;5050490;28;20032;-40
2022/10/07 02:07:18;;;;;;;0.68;0.68;;;;;;;;;;5066602;28;20131;-41
2022/10/07 02:10:01;;;;;;;0.95;0.70;;;;;;;;;;5066545;28;20025;-41
2022/10/07 02:12:42;;;;;;;0.80;0.70;;;;;;;;;;5066582;28;20474;-41
2022/10/07 02:15:14;;;;;;;1.23;0.70;;;;;;;;;;5076086;28;20038;-41
2022/10/07 02:17:43;;;;;;;1.17;0.85;;;;;;;;;;5086434;28;20032;-41
2022/10/07 02:20:10;;;;;;;1.00;0.80;;;;;;;;;;5086599;28;20059;-41
2022/10/07 02:22:38;;;;;;;1.05;0.60;;;;;;;;;;5086402;28;20438;-42
2022/10/07 02:25:05;;;;;;;0.70;0.70;;;;;;;;;;5086603;28;20039;-41
2022/10/07 02:27:33;;;;;;;1.20;0.80;;;;;;;;;;5086588;28;20156;-41
2022/10/07 02:30:02;;;;;;;1.05;0.75;;;;;;;;;;5085526;28;20038;-41
2022/10/07 02:32:30;;;;;;;2.42;0.68;;;;;;;;;;5086575;28;20036;-41
2022/10/07 02:35:03;;;;;;;1.38;0.60;;;;;;;;;;5087134;28;20047;-41
2022/10/07 02:37:31;;;;;;;0.65;0.60;;;;;;;;;;5086697;28;20031;-42
2022/10/07 02:39:57;;;;;;;0.60;0.60;;;;;;;;;;5077432;28;20036;-41
2022/10/07 02:42:33;;;;;;;0.65;0.60;;;;;;;;;;5066999;28;20024;-41
2022/10/07 02:45:03;;;;;;;0.95;0.80;;;;;;;;;;5066464;28;20888;-41
2022/10/07 02:47:48;;;;;;;0.73;0.73;;;;;;;;;;5066019;28;20067;-41
2022/10/07 02:50:19;;;;;;;0.98;0.70;;;;;;;;;;5078480;28;20031;-41
2022/10/07 02:52:46;;;;;;;0.93;0.60;;;;;;;;;;5087718;28;20043;-41
2022/10/07 02:55:14;;;;;;;1.02;0.90;;;;;;;;;;5076298;28;20032;-41
2022/10/07 02:57:43;;;;;;;0.82;0.70;;;;;;;;;;5077495;28;20090;-41
2022/10/07 03:00:10;;;;;;;1.15;0.80;;;;;;;;;;5090461;28;20886;-41
2022/10/07 03:02:44;;;;;;;1.30;0.90;;;;;;;;;;5090127;28;20031;-41
2022/10/07 03:05:11;;;;;;;0.95;0.60;;;;;;;;;;5090497;28;20417;-41
2022/10/07 03:07:37;;;;;;;1.17;0.70;;;;;;;;;;5090008;28;20578;-41
2022/10/07 03:10:04;;;;;;;1.58;0.90;;;;;;;;;;5090171;28;20456;-42
2022/10/07 03:12:30;;;;;;;1.10;1.00;;;;;;;;;;5089599;28;20043;-41
2022/10/07 03:14:57;;;;;;;1.10;0.80;;;;;;;;;;5089218;28;20558;-41
2022/10/07 03:17:23;;;;;;;1.02;0.77;;;;;;;;;;5089426;28;20057;-42
2022/10/07 03:19:49;;;;;;;1.70;0.95;;;;;;;;;;5088998;28;20035;-41
2022/10/07 03:22:15;;;;;;;1.00;0.70;;;;;;;;;;5090222;28;20039;-41
2022/10/07 03:24:41;;;;;;;1.23;0.80;;;;;;;;;;5089611;28;20556;-41
2022/10/07 03:27:07;;;;;;;0.70;0.60;;;;;;;;;;5089597;28;20028;-41
2022/10/07 03:29:34;;;;;;;0.90;0.75;;;;;;;;;;5089593;28;20396;-41
2022/10/07 03:32:00;;;;;;;0.77;0.70;;;;;;;;;;5089797;28;20035;-40
2022/10/07 03:34:27;;;;;;;0.93;0.80;;;;;;;;;;5089099;28;20598;-40
2022/10/07 03:36:53;;;;;;;1.92;0.90;;;;;;;;;;5090247;28;20525;-41
2022/10/07 03:39:20;;;;;;;1.60;0.80;;;;;;;;;;5089668;28;20032;-41
2022/10/07 03:41:47;;;;;;;0.93;0.70;;;;;;;;;;5089358;28;20052;-41
2022/10/07 03:44:14;;;;;;;0.82;0.68;;;;;;;;;;5089897;28;20031;-40
2022/10/07 03:46:40;;;;;;;0.70;0.70;;;;;;;;;;5089161;28;20802;-41
2022/10/07 03:49:06;;;;;;;1.25;0.88;;;;;;;;;;5088948;28;20055;-41
2022/10/07 03:51:32;;;;;;;1.80;0.70;;;;;;;;;;5089241;28;20032;-41
2022/10/07 03:53:58;;;;;;;1.02;0.93;;;;;;;;;;5089460;28;20027;-41
2022/10/07 03:56:24;;;;;;;0.80;0.68;;;;;;;;;;5089861;28;20107;-41
2022/10/07 03:58:51;;;;;;;1.58;0.80;;;;;;;;;;5089385;28;20486;-41
2022/10/07 04:01:17;;;;;;;0.98;0.90;;;;;;;;;;5089236;28;20630;-41
2022/10/07 04:03:45;;;;;;;1.58;0.80;;;;;;;;;;5087398;28;20111;-41
2022/10/07 04:06:11;;;;;;;1.02;0.70;;;;;;;;;;5089300;28;20024;-41
2022/10/07 04:08:39;;;;;;;0.70;0.70;;;;;;;;;;5088056;28;20112;-41
2022/10/07 04:11:05;;;;;;;0.90;0.73;;;;;;;;;;5088934;28;20028;-41
2022/10/07 04:13:32;;;;;;;0.98;0.80;;;;;;;;;;5088090;28;20035;-41
2022/10/07 04:15:59;;;;;;;1.58;0.85;;;;;;;;;;5088786;28;20049;-41
2022/10/07 04:18:25;;;;;;;1.02;0.88;;;;;;;;;;5089649;28;20089;-41
2022/10/07 04:20:51;;;;;;;1.10;1.00;;;;;;;;;;5088769;28;20024;-41
2022/10/07 04:23:17;;;;;;;1.40;0.80;;;;;;;;;;5088898;28;20024;-41
2022/10/07 04:25:44;;;;;;;1.15;1.00;;;;;;;;;;5088263;28;20054;-41
2022/10/07 04:28:15;;;;;;;0.88;0.80;;;;;;;;;;5088412;28;20032;-41
2022/10/07 04:30:42;;;;;;;2.17;0.90;;;;;;;;;;5088460;28;20107;-40
2022/10/07 04:33:08;;;;;;;2.25;0.93;;;;;;;;;;5088826;28;20158;-40
2022/10/07 04:35:38;;;;;;;2.80;0.90;;;;;;;;;;5088362;28;20144;-41
2022/10/07 04:38:06;;;;;;;1.15;0.70;;;;;;;;;;5088433;28;20024;-41
2022/10/07 04:40:32;;;;;;;1.88;0.77;;;;;;;;;;5088383;28;20022;-40
2022/10/07 04:45:43;;;;;;;1.35;0.85;;;;;;;;;;5087521;28;20119;-41
2022/10/07 04:48:09;;;;;;;0.70;0.70;;;;;;;;;;5085661;28;20509;-41
2022/10/07 04:50:39;;;;;;;0.70;0.70;;;;;;;;;;5085257;28;20115;-40
2022/10/07 04:53:06;;;;;;;0.85;0.60;;;;;;;;;;5088382;28;20031;-41
2022/10/07 04:55:39;;;;;;;1.48;0.90;;;;;;;;;;5087588;28;20024;-40
2022/10/07 04:58:05;;;;;;;1.70;1.00;;;;;;;;;;5088233;28;20028;-41
2022/10/07 05:00:32;;;;;;;1.52;1.15;;;;;;;;;;5087211;28;20028;-40
2022/10/07 05:02:58;;;;;;;1.45;1.10;;;;;;;;;;5087994;28;20020;-40
2022/10/07 05:05:26;;;;;;;1.05;0.90;;;;;;;;;;5088677;28;20495;-40
2022/10/07 05:07:53;;;;;;;0.82;0.82;;;;;;;;;;5088059;28;20012;-40
2022/10/07 05:10:19;;;;;;;1.83;1.02;;;;;;;;;;5088227;28;20024;-41
2022/10/07 05:12:45;;;;;;;2.10;1.10;;;;;;;;;;5085648;28;20131;-41
2022/10/07 05:15:11;;;;;;;1.75;0.82;;;;;;;;;;5074715;28;20070;-40
2022/10/07 05:17:41;;;;;;;1.23;0.90;;;;;;;;;;5087542;28;20024;-41
2022/10/07 05:20:08;;;;;;;1.90;0.88;;;;;;;;;;5087286;28;20025;-40
2022/10/07 05:22:34;;;;;;;1.63;0.93;;;;;;;;;;5087334;28;20035;-41
2022/10/07 05:25:00;;;;;;;1.15;0.90;;;;;;;;;;5073577;28;20036;-41
2022/10/07 05:27:26;;;;;;;2.17;0.90;;;;;;;;;;5067586;28;20457;-40
2022/10/07 05:29:52;;;;;;;1.52;0.95;;;;;;;;;;5074980;28;20036;-40
2022/10/07 05:32:19;;;;;;;1.08;0.80;;;;;;;;;;5067254;28;20029;-41
2022/10/07 05:34:45;;;;;;;1.10;0.60;;;;;;;;;;5077238;28;20487;-40
2022/10/07 05:37:12;;;;;;;1.10;0.98;;;;;;;;;;5076011;28;20039;-40
2022/10/07 05:39:38;;;;;;;1.05;0.70;;;;;;;;;;5081667;28;20612;-41
2022/10/07 05:42:04;;;;;;;1.38;0.80;;;;;;;;;;5068740;28;20146;-40
2022/10/07 05:44:31;;;;;;;0.75;0.60;;;;;;;;;;5067409;28;20017;-41
2022/10/07 05:46:57;;;;;;;0.55;0.55;;;;;;;;;;5086346;28;20035;-40
2022/10/07 05:49:23;;;;;;;1.88;0.77;;;;;;;;;;5087706;28;20051;-41
2022/10/07 05:51:50;;;;;;;1.52;0.98;;;;;;;;;;5087006;28;20028;-41
2022/10/07 05:54:17;;;;;;;1.20;0.85;;;;;;;;;;5086008;28;20023;-40
2022/10/07 05:56:43;;;;;;;0.95;0.70;;;;;;;;;;5087057;28;20024;-41
2022/10/07 05:59:09;;;;;;;0.57;0.50;;;;;;;;;;5078931;28;20111;-41
2022/10/07 06:01:36;;;;;;;0.95;0.70;;;;;;;;;;5071157;28;20549;-40
2022/10/07 06:04:02;;;;;;;3.58;0.75;;;;;;;;;;5085799;28;20027;-41
2022/10/07 06:06:29;;;;;;;1.70;0.80;;;;;;;;;;5086191;28;20047;-40
2022/10/07 06:13:06;;;;;;;0.80;0.80;;;;;;;;;;5079768;28;20028;-41
2022/10/07 06:14:26;;;;;;;0.85;0.70;;;;;;;;;;5066774;28;20123;-41
2022/10/07 06:16:52;;;;;;;0.57;0.57;;;;;;;;;;5065178;28;20103;-41
2022/10/07 06:19:21;;;;;;;2.45;1.38;;;;;;;;;;5066088;28;20486;-41
2022/10/07 06:21:48;;;;;;;1.05;0.75;;;;;;;;;;5066310;28;20082;-41
2022/10/07 06:24:14;;;;;;;0.93;0.80;;;;;;;;;;5066519;28;20025;-41
2022/10/07 06:26:42;;;;;;;1.55;1.08;;;;;;;;;;5065558;28;20466;-41
2022/10/07 06:29:09;;;;;;;1.40;1.00;;;;;;;;;;5072192;28;20047;-41
2022/10/07 06:31:35;;;;;;;1.65;1.02;;;;;;;;;;5084955;28;20103;-41
2022/10/07 06:34:01;;;;;;;1.80;0.90;;;;;;;;;;5086120;28;20534;-41
2022/10/07 06:36:27;;;;;;;1.30;0.95;;;;;;;;;;5075571;28;20060;-42
2022/10/07 06:38:54;;;;;;;2.03;1.00;;;;;;;;;;5078964;28;20030;-41
2022/10/07 06:41:21;;;;;;;1.70;1.10;;;;;;;;;;5084895;28;20028;-41
2022/10/07 06:43:48;;;;;;;1.83;1.20;;;;;;;;;;5083179;28;20052;-41
2022/10/07 06:46:15;;;;;;;1.65;0.95;;;;;;;;;;5086048;28;20435;-41
2022/10/07 06:48:43;;;;;;;1.70;1.20;;;;;;;;;;5069050;28;20040;-42
2022/10/07 06:51:13;;;;;;;0.90;0.80;;;;;;;;;;5069286;28;20035;-42
2022/10/07 06:53:40;;;;;;;2.13;1.35;;;;;;;;;;5067788;28;20045;-41
2022/10/07 06:56:06;;;;;;;2.25;1.00;;;;;;;;;;5069497;28;20423;-41
2022/10/07 06:58:32;;;;;;;1.80;1.00;;;;;;;;;;5067394;28;20032;-41
2022/10/07 07:00:59;;;;;;;0.88;0.82;;;;;;;;;;5076080;28;20032;-41
2022/10/07 07:03:26;;;;;;;1.30;0.98;;;;;;;;;;5073149;28;20774;-41
2022/10/07 07:05:52;;;;;;;1.65;1.25;;;;;;;;;;5068411;28;20024;-41
2022/10/07 07:08:19;;;;;;;1.35;0.98;;;;;;;;;;5068295;28;20078;-41
2022/10/07 07:10:45;;;;;;;2.25;1.17;;;;;;;;;;5070268;28;21306;-41
2022/10/07 07:13:11;;;;;;;1.80;1.00;;;;;;;;;;5071953;28;20555;-41
2022/10/07 07:15:38;;;;;;;1.95;1.10;;;;;;;;;;5073790;28;20361;-41
2022/10/07 07:18:06;;;;;;;2.22;1.35;;;;;;;;;;5080497;28;20028;-41
2022/10/07 07:20:38;;;;;;;3.33;1.75;;;;;;;;;;5085098;28;20055;-42
2022/10/07 07:23:06;;;;;;;1.88;1.35;;;;;;;;;;5085403;28;20063;-42
2022/10/07 07:25:35;;;;;;;2.75;1.55;;;;;;;;;;5075599;28;20024;-41
2022/10/07 07:28:02;;;;;;;2.45;1.67;;;;;;;;;;5083109;28;20032;-41
2022/10/07 07:30:31;;;;;;;2.13;1.30;;;;;;;;;;5083242;28;20085;-42
2022/10/07 07:32:57;;;;;;;2.55;1.23;;;;;;;;;;5082464;28;20059;-41
2022/10/07 07:35:24;;;;;;;1.80;1.60;;;;;;;;;;5083255;28;20024;-41
2022/10/07 07:37:50;;;;;;;1.65;1.35;;;;;;;;;;5083228;28;20062;-41
2022/10/07 07:40:17;;;;;;;1.67;1.40;;;;;;;;;;5087648;28;20481;-41
2022/10/07 07:42:44;;;;;;;1.52;1.30;;;;;;;;;;5087771;28;20024;-41
2022/10/07 07:45:11;;;;;;;1.63;1.10;;;;;;;;;;5085872;28;20514;-42
2022/10/07 07:47:37;;;;;;;3.97;1.30;;;;;;;;;;5087747;28;20032;-41
2022/10/07 07:50:04;;;;;;;1.70;1.30;;;;;;;;;;5081250;28;20047;-42
2022/10/07 07:52:30;;;;;;;2.08;1.42;;;;;;;;;;5084943;28;20032;-42
2022/10/07 07:54:57;;;;;;;2.08;1.40;;;;;;;;;;5087207;28;20024;-42
2022/10/07 07:57:25;;;;;;;1.58;1.38;;;;;;;;;;5079337;28;20040;-41
2022/10/07 07:59:51;;;;;;;2.17;1.55;;;;;;;;;;5079694;28;20455;-41
2022/10/07 08:02:18;;;;;;;3.38;2.20;;;;;;;;;;5080822;28;20423;-41
2022/10/07 08:04:44;;;;;;;2.47;1.88;;;;;;;;;;5079241;28;20459;-41
2022/10/07 08:07:11;;;;;;;3.10;2.03;;;;;;;;;;5080132;28;20032;-42
2022/10/07 08:09:38;;;;;;;3.60;1.77;;;;;;;;;;5080266;28;20803;-42
2022/10/07 08:12:04;;;;;;;2.00;1.80;;;;;;;;;;5079962;28;20031;-42
2022/10/07 08:14:30;;;;;;;2.40;1.80;;;;;;;;;;5079696;28;20032;-41
2022/10/07 08:16:57;;;;;;;2.88;1.33;;;;;;;;;;5077310;28;20032;-42
2022/10/07 08:19:24;;;;;;;2.03;1.55;;;;;;;;;;5080427;28;20024;-41
2022/10/07 08:21:51;;;;;;;2.38;1.55;;;;;;;;;;5080784;28;20475;-42
2022/10/07 08:24:17;;;;;;;1.63;1.30;;;;;;;;;;5077337;28;20034;-41
2022/10/07 08:26:43;;;;;;;2.00;1.38;;;;;;;;;;5074842;28;20043;-42
2022/10/07 08:29:10;;;;;;;1.67;1.38;;;;;;;;;;5077174;28;20474;-42
2022/10/07 08:31:38;;;;;;;1.40;1.10;;;;;;;;;;5076387;28;20052;-41
2022/10/07 08:34:05;;;;;;;2.38;1.50;;;;;;;;;;5078281;28;21024;-41
2022/10/07 08:36:32;;;;;;;1.60;1.30;;;;;;;;;;5074609;28;20553;-42
2022/10/07 08:38:59;;;;;;;1.98;1.30;;;;;;;;;;5077950;28;20031;-42
2022/10/07 08:42:07;;;;;;;1.88;1.30;;;;;;;;;;5078090;28;20032;-42
2022/10/07 08:44:36;;;;;;;1.73;1.23;;;;;;;;;;5004985;28;20034;-43
2022/10/07 08:47:21;;;;;;;1.83;1.63;;;;;;;;;;4999546;28;20045;-41
2022/10/07 08:49:53;;;;;;;1.90;1.35;;;;;;;;;;5049106;28;20503;-42
2022/10/07 08:52:22;;;;;;;2.05;1.48;;;;;;;;;;5077383;28;20070;-42
2022/10/07 08:54:48;;;;;;;1.88;1.10;;;;;;;;;;5078438;28;20510;-41
2022/10/07 08:57:24;;;;;;;1.70;1.20;;;;;;;;;;5075330;28;20762;-42
2022/10/07 08:59:52;;;;;;;1.23;1.13;;;;;;;;;;5078645;28;20023;-41
2022/10/07 09:02:35;;;;;;;1.20;1.10;;;;;;;;;;5077486;28;20674;-42
2022/10/07 09:05:21;;;;;;;1.63;1.00;;;;;;;;;;5078651;28;20065;-42
2022/10/07 09:07:49;;;;;;;0.90;0.90;;;;;;;;;;5074319;28;20060;-41
2022/10/07 09:10:34;;;;;;;1.40;1.08;;;;;;;;;;5078683;28;20633;-42
2022/10/07 09:12:59;;;;;;;;;;;;;;;;;;5076653;28;20036;-42
2022/10/07 09:15:45;;;;;;;1.20;1.00;;;;;;;;;;5078535;28;19911;-42
2022/10/07 09:18:14;;;;;;;1.42;0.95;;;;;;;;;;5075950;28;20036;-41
2022/10/07 09:20:43;;;;;;;1.25;1.15;;;;;;;;;;5078279;28;20426;-42
2022/10/07 09:23:14;;;;;;;1.60;0.98;;;;;;;;;;5076525;28;20169;-42
2022/10/07 09:25:41;;;;;;;0.75;0.70;;;;;;;;;;5077522;28;20039;-42
2022/10/07 09:28:15;;;;;;;1.77;0.98;;;;;;;;;;5073892;28;20115;-43
2022/10/07 09:30:41;;;;;;;;;;;;;;;;;;5081020;28;20104;-41
2022/10/07 09:33:19;;;;;;;1.20;1.10;;;;;;;;;;5079469;28;20046;-42
2022/10/07 09:35:51;;;;;;;1.42;1.10;;;;;;;;;;5078820;28;20105;-42
2022/10/07 09:38:28;;;;;;;1.88;1.30;;;;;;;;;;5080064;28;20566;-41
2022/10/07 09:41:15;;;;;;;1.77;1.45;;;;;;;;;;5083620;28;20414;-41
2022/10/07 09:43:52;;;;;;;1.05;0.93;;;;;;;;;;5082045;28;20024;-42
2022/10/07 09:46:30;;;;;;;1.45;0.90;;;;;;;;;;5085555;28;20036;-42
2022/10/07 09:48:57;;;;;;;0.80;0.70;;;;;;;;;;5085077;28;20402;-42
2022/10/07 09:51:25;;;;;;;0.80;0.80;;;;;;;;;;5083099;28;20339;-41
2022/10/07 09:54:06;;;;;;;0.88;0.60;;;;;;;;;;5080370;28;20391;-41
2022/10/07 09:56:43;;;;;;;1.20;0.70;;;;;;;;;;5065895;28;20035;-42
2022/10/07 09:59:25;;;;;;;1.10;0.80;;;;;;;;;;5082609;28;20442;-42
2022/10/07 10:01:57;;;;;;;0.63;0.63;;;;;;;;;;5085243;28;20039;-41
2022/10/07 10:04:26;;;;;;;0.57;0.50;;;;;;;;;;5084384;28;20027;-42
2022/10/07 10:06:53;;;;;;;0.75;0.60;;;;;;;;;;5085565;28;20520;-42
2022/10/07 10:09:24;;;;;;;0.60;0.60;;;;;;;;;;5084269;28;20024;-43
2022/10/07 10:12:25;;;;;;;1.02;0.63;;;;;;;;;;5085194;28;20036;-42
2022/10/07 10:14:54;;;;;;;0.60;0.60;;;;;;;;;;5054248;28;20029;-42
2022/10/07 10:17:22;;;;;;;0.57;0.57;;;;;;;;;;5074745;28;20044;-43
2022/10/07 10:19:48;;;;;;;0.50;0.50;;;;;;;;;;5083403;28;20525;-42
2022/10/07 10:22:28;;;;;;;0.63;0.50;;;;;;;;;;5085855;28;20320;-42
2022/10/07 10:28:00;;;;;;;0.65;0.65;;;;;;;;;;5084203;28;20538;-42
2022/10/07 10:30:26;;;;;;;0.75;0.70;;;;;;;;;;5032825;28;20033;-42
2022/10/07 10:33:03;;;;;;;0.70;0.70;;;;;;;;;;5076223;28;20491;-41
2022/10/07 10:35:39;;;;;;;0.60;0.60;;;;;;;;;;5084427;28;20032;-41
2022/10/07 10:38:24;;;;;;;1.05;0.77;;;;;;;;;;5082240;28;20036;-43
2022/10/07 10:41:03;;;;;;;0.50;0.50;;;;;;;;;;5085694;28;20051;-41
2022/10/07 10:43:43;;;;;;;0.50;0.50;;;;;;;;;;5083235;28;20032;-42
2022/10/07 10:46:18;;;;;;;0.95;0.73;;;;;;;;;;5085483;28;20020;-43
2022/10/07 10:48:49;;;;;;;0.60;0.60;;;;;;;;;;5083412;28;20069;-42
2022/10/07 10:51:34;;;;;;;0.50;0.50;;;;;;;;;;5076573;28;20027;-42
2022/10/07 10:54:19;;;;;;;1.00;0.70;;;;;;;;;;5081998;28;20149;-42
2022/10/07 10:56:55;;;;;;;0.60;0.60;;;;;;;;;;5067131;28;20636;-43
2022/10/07 10:59:24;;;;;;;0.88;0.70;;;;;;;;;;5083470;28;20036;-43
2022/10/07 11:02:02;;;;;;;0.60;0.60;;;;;;;;;;5085154;28;20028;-42
2022/10/07 11:04:37;;;;;;;2.85;1.10;;;;;;;;;;5083475;28;20538;-42
2022/10/07 11:07:11;;;;;;;1.02;0.90;;;;;;;;;;5084563;28;20028;-43
2022/10/07 11:09:43;;;;;;;0.75;0.73;;;;;;;;;;5080628;28;20020;-42
2022/10/07 11:12:32;;;;;;;1.27;0.80;;;;;;;;;;5084479;28;20063;-43
2022/10/07 11:15:01;;;;;;;0.68;0.63;;;;;;;;;;5057818;28;20036;-43
2022/10/07 11:17:30;;;;;;;0.52;0.52;;;;;;;;;;5087865;28;20050;-43
2022/10/07 11:20:03;;;;;;;0.57;0.50;;;;;;;;;;5087719;28;20399;-43
2022/10/07 11:22:36;;;;;;;0.60;0.60;;;;;;;;;;5088063;28;20031;-42
2022/10/07 11:25:22;;;;;;;1.48;0.95;;;;;;;;;;5085914;28;20020;-42
2022/10/07 11:27:50;;;;;;;0.98;0.93;;;;;;;;;;5076431;28;20036;-43
2022/10/07 11:30:19;;;;;;;1.10;0.85;;;;;;;;;;5088320;28;20028;-41
2022/10/07 11:33:04;;;;;;;0.60;0.60;;;;;;;;;;5083101;28;20036;-40
2022/10/07 11:35:32;;;;;;;0.77;0.70;;;;;;;;;;5087932;28;20024;-41
2022/10/07 11:38:04;;;;;;;1.42;0.73;;;;;;;;;;5087132;28;20047;-40
2022/10/07 11:40:31;;;;;;;1.25;0.90;;;;;;;;;;5087489;28;20103;-41
2022/10/07 11:43:04;;;;;;;0.93;0.80;;;;;;;;;;5087036;28;20081;-40
2022/10/07 11:45:36;;;;;;;1.50;1.13;;;;;;;;;;5087914;28;20020;-41
2022/10/07 11:48:06;;;;;;;1.30;0.85;;;;;;;;;;5082733;28;20445;-41
2022/10/07 11:50:46;;;;;;;1.23;1.13;;;;;;;;;;5085877;28;20027;-41
2022/10/07 11:53:19;;;;;;;1.50;0.98;;;;;;;;;;5083324;28;20048;-40
2022/10/07 11:55:55;;;;;;;2.80;1.63;;;;;;;;;;5083660;28;20549;-40
2022/10/07 11:58:23;;;;;;;3.60;1.85;;;;;;;;;;5085514;28;20062;-40
2022/10/07 12:00:49;;;;;;;2.55;1.58;;;;;;;;;;5085815;28;20028;-41
2022/10/07 12:03:18;;;;;;;2.55;1.33;;;;;;;;;;5085048;28;20036;-40
2022/10/07 12:05:47;;;;;;;2.03;1.30;;;;;;;;;;5073808;28;20158;-40
2022/10/07 12:08:30;;;;;;;1.20;1.10;;;;;;;;;;5081058;28;20028;-42
2022/10/07 12:11:16;;;;;;;2.08;1.40;;;;;;;;;;5081033;28;20112;-40
2022/10/07 12:13:42;;;;;;;2.38;1.83;;;;;;;;;;5086961;28;20510;-41
2022/10/07 12:16:31;;;;;;;2.00;1.50;;;;;;;;;;5080159;28;20075;-41
2022/10/07 12:19:12;;;;;;;2.00;1.60;;;;;;;;;;5061743;28;20040;-40
2022/10/07 12:21:58;;;;;;;2.92;1.75;;;;;;;;;;5090567;28;20020;-40
2022/10/07 12:24:24;;;;;;;1.83;1.35;;;;;;;;;;5088961;28;20465;-41
2022/10/07 12:26:51;;;;;;;1.38;1.17;;;;;;;;;;5090369;28;20055;-40
2022/10/07 12:29:22;;;;;;;2.00;1.75;;;;;;;;;;5089248;28;20138;-41
2022/10/07 12:31:49;;;;;;;1.35;1.25;;;;;;;;;;5090345;28;20036;-40
2022/10/07 12:34:35;;;;;;;2.17;1.40;;;;;;;;;;5089793;28;20097;-41
2022/10/07 12:37:20;;;;;;;1.25;1.15;;;;;;;;;;5090279;28;20387;-40
2022/10/07 12:39:46;;;;;;;1.58;1.30;;;;;;;;;;5087444;28;20020;-41
2022/10/07 12:42:13;;;;;;;2.47;1.40;;;;;;;;;;5089866;28;20072;-41
2022/10/07 12:44:43;;;;;;;2.20;1.40;;;;;;;;;;5089431;28;20028;-41
2022/10/07 12:47:28;;;;;;;2.10;1.63;;;;;;;;;;5089747;28;20490;-40
2022/10/07 12:50:06;;;;;;;3.08;2.30;;;;;;;;;;5089300;28;20099;-41
2022/10/07 12:52:42;;;;;;;3.55;2.25;;;;;;;;;;5089419;28;20028;-40
2022/10/07 12:55:12;;;;;;;2.63;1.98;;;;;;;;;;5084914;28;20028;-41
2022/10/07 12:57:41;;;;;;;2.05;1.90;;;;;;;;;;5086898;28;20124;-40
2022/10/07 13:00:07;;;;;;;2.67;1.83;;;;;;;;;;5088207;28;20059;-40
2022/10/07 13:02:40;;;;;;;2.15;1.55;;;;;;;;;;5078686;28;20081;-40
2022/10/07 13:05:15;;;;;;;1.65;1.42;;;;;;;;;;5089561;28;20103;-40
2022/10/07 13:07:42;;;;;;;1.95;1.63;;;;;;;;;;5088855;28;20024;-41
2022/10/07 13:10:08;;;;;;;2.60;1.83;;;;;;;;;;5089466;28;20028;-41
2022/10/07 13:12:42;;;;;;;2.90;1.80;;;;;;;;;;5088900;28;20035;-40
2022/10/07 13:15:13;;;;;;;2.10;1.70;;;;;;;;;;5088983;28;20060;-40
2022/10/07 13:17:47;;;;;;;2.65;1.70;;;;;;;;;;5088063;28;20115;-40
2022/10/07 13:20:16;;;;;;;4.18;2.13;;;;;;;;;;5089613;28;20028;-40
2022/10/07 13:22:46;;;;;;;2.80;1.90;;;;;;;;;;5087995;28;20030;-41
2022/10/07 13:25:13;;;;;;;2.92;1.55;;;;;;;;;;5080431;28;20336;-40
2022/10/07 13:27:40;;;;;;;2.30;1.52;;;;;;;;;;5077172;28;20224;-41
2022/10/07 13:30:07;;;;;;;2.15;1.70;;;;;;;;;;5087424;28;20077;-41
2022/10/07 13:32:34;;;;;;;1.60;1.40;;;;;;;;;;5080074;28;20039;-40
2022/10/07 13:35:17;;;;;;;2.17;1.58;;;;;;;;;;5085097;28;20043;-41
2022/10/07 13:37:45;;;;;;;1.85;1.60;;;;;;;;;;5076074;28;20067;-41
2022/10/07 13:40:32;;;;;;;1.40;1.30;;;;;;;;;;5087393;28;20093;-41
2022/10/07 13:43:00;;;;;;;2.28;1.52;;;;;;;;;;5086874;28;20818;-41
2022/10/07 13:45:27;;;;;;;1.88;1.25;;;;;;;;;;5087137;28;20058;-41
2022/10/07 13:47:55;;;;;;;1.65;1.30;;;;;;;;;;5085340;28;20526;-41
2022/10/07 13:50:25;;;;;;;1.30;1.08;;;;;;;;;;5082824;28;20030;-40
2022/10/07 13:52:54;;;;;;;1.08;1.00;;;;;;;;;;5078419;28;20407;-41
2022/10/07 13:55:23;;;;;;;1.88;1.38;;;;;;;;;;5083873;28;20027;-41
2022/10/07 13:57:49;;;;;;;1.13;1.02;;;;;;;;;;5078265;28;20117;-41
2022/10/07 14:00:16;;;;;;;2.10;1.45;;;;;;;;;;5087650;28;20479;-41
2022/10/07 14:02:42;;;;;;;1.25;0.88;;;;;;;;;;5087325;28;20027;-40
2022/10/07 14:05:17;;;;;;;1.33;1.20;;;;;;;;;;5087297;28;20028;-40
2022/10/07 14:07:43;;;;;;;2.25;1.40;;;;;;;;;;5086952;28;20024;-41
2022/10/07 14:10:11;;;;;;;3.25;1.23;;;;;;;;;;5088659;28;20028;-40
2022/10/07 14:12:45;;;;;;;1.27;1.17;;;;;;;;;;5088417;28;20077;-40
2022/10/07 14:15:18;;;;;;;1.77;1.20;;;;;;;;;;5089163;28;20024;-40
2022/10/07 14:17:46;;;;;;;1.30;1.20;;;;;;;;;;5084479;28;20040;-41
2022/10/07 14:20:18;;;;;;;1.10;1.00;;;;;;;;;;5087593;28;20081;-40
2022/10/07 14:22:48;;;;;;;1.73;1.38;;;;;;;;;;5083673;28;20094;-41
2022/10/07 14:25:19;;;;;;;1.65;0.95;;;;;;;;;;5081475;28;20475;-41
2022/10/07 14:27:45;;;;;;;2.22;1.05;;;;;;;;;;5086447;28;20044;-41
2022/10/07 14:30:28;;;;;;;1.60;1.13;;;;;;;;;;5085160;28;20388;-40
2022/10/07 14:36:18;;;;;;;1.02;1.00;;;;;;;;;;5076861;28;20100;-42
2022/10/07 14:38:49;;;;;;;1.10;1.00;;;;;;;;;;5082339;28;20104;-41
2022/10/07 14:41:16;;;;;;;1.20;0.90;;;;;;;;;;5088139;28;20032;-40
2022/10/07 14:43:44;;;;;;;1.02;1.00;;;;;;;;;;5080743;28;20494;-41
2022/10/07 14:46:19;;;;;;;1.48;1.10;;;;;;;;;;5084625;28;20047;-40
2022/10/07 14:48:46;;;;;;;0.75;0.75;;;;;;;;;;5081905;28;20460;-40
2022/10/07 14:51:13;;;;;;;0.80;0.80;;;;;;;;;;5082468;28;20027;-41
2022/10/07 14:53:40;;;;;;;1.00;0.90;;;;;;;;;;5078958;28;20487;-40
2022/10/07 14:56:06;;;;;;;1.35;1.10;;;;;;;;;;5078915;28;20028;-41
2022/10/07 14:58:32;;;;;;;1.30;1.10;;;;;;;;;;5074055;28;20513;-40
2022/10/07 15:00:59;;;;;;;1.10;1.10;;;;;;;;;;5080645;28;20372;-41
2022/10/07 15:03:25;;;;;;;1.30;0.85;;;;;;;;;;5083610;28;20032;-41
2022/10/07 15:05:52;;;;;;;2.00;1.30;;;;;;;;;;5079642;28;20023;-40
2022/10/07 15:08:18;;;;;;;1.95;1.17;;;;;;;;;;5083017;28;20095;-41
2022/10/07 15:10:45;;;;;;;2.35;1.65;;;;;;;;;;5077155;28;20028;-40
2022/10/07 15:13:11;;;;;;;1.75;1.48;;;;;;;;;;5079537;28;20104;-40